createdAt,value
2019-01-03T00:00:36.091Z,16.88
2019-01-03T00:01:16.874Z,16.94
2019-01-03T00:01:57.597Z,16.89
2019-01-03T00:02:38.332Z,16.91
2019-01-03T00:03:19.069Z,16.86
2019-01-03T00:03:59.927Z,16.89
2019-01-03T00:04:40.730Z,16.89
2019-01-03T00:05:21.521Z,16.94
2019-01-03T00:06:02.252Z,16.89
2019-01-03T00:06:42.986Z,16.88
2019-01-03T00:07:23.738Z,16.89
2019-01-03T00:08:04.510Z,16.93
2019-01-03T00:08:45.307Z,16.86
2019-01-03T00:09:25.989Z,16.91
2019-01-03T00:10:06.771Z,16.88
2019-01-03T00:10:47.597Z,16.89
2019-01-03T00:11:28.436Z,16.91
2019-01-03T00:12:09.241Z,16.91
2019-01-03T00:12:49.939Z,16.96
2019-01-03T00:13:30.664Z,16.93
2019-01-03T00:14:11.373Z,16.88
2019-01-03T00:14:52.166Z,16.91
2019-01-03T00:15:32.953Z,16.93
2019-01-03T00:16:13.716Z,16.89
2019-01-03T00:16:54.451Z,16.81
2019-01-03T00:17:35.160Z,16.83
2019-01-03T00:18:16.044Z,16.89
2019-01-03T00:18:56.753Z,16.78
2019-01-03T00:19:37.500Z,16.83
2019-01-03T00:20:18.253Z,16.91
2019-01-03T00:20:59.008Z,16.86
2019-01-03T00:21:39.808Z,16.81
2019-01-03T00:22:20.644Z,16.85
2019-01-03T00:23:01.499Z,16.78
2019-01-03T00:23:42.251Z,16.82
2019-01-03T00:24:23.004Z,16.82
2019-01-03T00:25:03.689Z,16.83
2019-01-03T00:25:44.514Z,16.83
2019-01-03T00:26:25.282Z,16.85
2019-01-03T00:27:06.056Z,16.85
2019-01-03T00:27:46.924Z,16.79
2019-01-03T00:28:27.827Z,16.79
2019-01-03T00:29:08.630Z,16.83
2019-01-03T00:29:49.486Z,16.78
2019-01-03T00:30:30.201Z,16.76
2019-01-03T00:31:11.098Z,16.78
2019-01-03T00:31:51.847Z,16.78
2019-01-03T00:32:32.617Z,16.76
2019-01-03T00:33:13.370Z,16.83
2019-01-03T00:33:54.981Z,16.75
2019-01-03T00:34:35.798Z,16.85
2019-01-03T00:35:16.621Z,16.78
2019-01-03T00:35:57.356Z,16.78
2019-01-03T00:36:38.190Z,16.79
2019-01-03T00:37:19.046Z,16.73
2019-01-03T00:37:59.872Z,16.81
2019-01-03T00:38:40.682Z,16.79
2019-01-03T00:39:21.444Z,16.81
2019-01-03T00:40:02.251Z,16.78
2019-01-03T00:40:43.099Z,16.73
2019-01-03T00:41:23.918Z,16.73
2019-01-03T00:42:04.707Z,16.79
2019-01-03T00:42:45.540Z,16.71
2019-01-03T00:43:26.300Z,16.7
2019-01-03T00:44:07.121Z,16.75
2019-01-03T00:44:48.060Z,16.79
2019-01-03T00:45:28.778Z,16.71
2019-01-03T00:46:09.650Z,16.73
2019-01-03T00:46:50.225Z,16.7
2019-01-03T00:47:31.092Z,16.82
2019-01-03T00:48:11.938Z,16.75
2019-01-03T00:48:52.704Z,16.67
2019-01-03T00:49:33.521Z,16.64
2019-01-03T00:50:14.364Z,16.68
2019-01-03T00:50:55.259Z,16.71
2019-01-03T00:51:36.065Z,16.73
2019-01-03T00:52:16.840Z,16.73
2019-01-03T00:52:57.705Z,16.71
2019-01-03T00:53:38.509Z,16.71
2019-01-03T00:54:19.321Z,16.7
2019-01-03T00:55:00.082Z,16.75
2019-01-03T00:55:40.780Z,16.67
2019-01-03T00:56:21.636Z,16.68
2019-01-03T00:57:02.476Z,16.67
2019-01-03T00:57:43.297Z,16.71
2019-01-03T00:58:24.094Z,16.66
2019-01-03T00:59:04.936Z,16.76
2019-01-03T00:59:45.659Z,16.64
2019-01-03T01:00:26.489Z,16.7
2019-01-03T01:01:07.253Z,16.75
2019-01-03T01:01:48.046Z,16.71
2019-01-03T01:02:28.776Z,16.73
2019-01-03T01:03:09.580Z,16.71
2019-01-03T01:03:50.418Z,16.71
2019-01-03T01:04:31.135Z,16.71
2019-01-03T01:05:11.875Z,16.75
2019-01-03T01:05:52.691Z,16.67
2019-01-03T01:06:33.511Z,16.7
2019-01-03T01:07:14.262Z,16.68
2019-01-03T01:07:55.002Z,16.73
2019-01-03T01:08:35.736Z,16.73
2019-01-03T01:09:16.530Z,16.68
2019-01-03T01:09:57.267Z,16.7
2019-01-03T01:10:38.005Z,16.64
2019-01-03T01:11:18.778Z,16.73
2019-01-03T01:11:59.583Z,16.67
2019-01-03T01:12:40.384Z,16.66
2019-01-03T01:13:21.179Z,16.7
2019-01-03T01:14:01.940Z,16.68
2019-01-03T01:14:42.656Z,16.73
2019-01-03T01:15:23.465Z,16.71
2019-01-03T01:16:04.308Z,16.67
2019-01-03T01:16:45.161Z,16.7
2019-01-03T01:17:25.934Z,16.68
2019-01-03T01:18:06.668Z,16.68
2019-01-03T01:18:47.412Z,16.7
2019-01-03T01:19:28.295Z,16.64
2019-01-03T01:20:09.039Z,16.66
2019-01-03T01:20:49.745Z,16.7
2019-01-03T01:21:30.605Z,16.66
2019-01-03T01:22:11.418Z,16.71
2019-01-03T01:22:52.210Z,16.67
2019-01-03T01:23:33.032Z,16.66
2019-01-03T01:24:13.816Z,16.71
2019-01-03T01:24:54.620Z,16.66
2019-01-03T01:25:35.348Z,16.66
2019-01-03T01:26:16.078Z,16.68
2019-01-03T01:26:56.911Z,16.71
2019-01-03T01:27:37.619Z,16.61
2019-01-03T01:28:18.449Z,16.66
2019-01-03T01:28:59.383Z,16.68
2019-01-03T01:29:40.298Z,16.68
2019-01-03T01:30:21.147Z,16.71
2019-01-03T01:31:01.854Z,16.66
2019-01-03T01:31:42.543Z,16.68
2019-01-03T01:32:23.284Z,16.63
2019-01-03T01:33:04.073Z,16.64
2019-01-03T01:33:44.859Z,16.61
2019-01-03T01:34:25.691Z,16.66
2019-01-03T01:35:06.555Z,16.64
2019-01-03T01:35:47.275Z,16.63
2019-01-03T01:36:28.138Z,16.64
2019-01-03T01:37:08.965Z,16.66
2019-01-03T01:37:49.686Z,16.66
2019-01-03T01:38:30.466Z,16.64
2019-01-03T01:41:55.166Z,16.66
2019-01-03T01:42:35.957Z,16.64
2019-01-03T01:43:16.778Z,16.66
2019-01-03T01:43:57.525Z,16.64
2019-01-03T01:44:38.309Z,16.66
2019-01-03T01:45:19.244Z,16.64
2019-01-03T01:46:00.013Z,16.67
2019-01-03T01:46:40.788Z,16.63
2019-01-03T01:47:21.575Z,16.61
2019-01-03T01:48:02.342Z,16.66
2019-01-03T01:48:43.195Z,16.58
2019-01-03T01:49:23.955Z,16.63
2019-01-03T01:50:04.763Z,16.63
2019-01-03T01:50:45.593Z,16.63
2019-01-03T01:51:26.308Z,16.57
2019-01-03T01:52:07.618Z,16.56
2019-01-03T01:52:48.333Z,16.63
2019-01-03T01:53:29.098Z,16.58
2019-01-03T01:54:09.846Z,16.6
2019-01-03T01:54:50.626Z,16.61
2019-01-03T01:55:31.429Z,16.68
2019-01-03T01:56:12.234Z,16.57
2019-01-03T01:56:52.995Z,16.57
2019-01-03T01:57:33.715Z,16.61
2019-01-03T01:58:14.508Z,16.66
2019-01-03T01:58:55.294Z,16.6
2019-01-03T01:59:35.998Z,16.57
2019-01-03T02:00:16.702Z,16.58
2019-01-03T02:00:57.434Z,16.58
2019-01-03T02:01:38.291Z,16.57
2019-01-03T02:02:19.158Z,16.53
2019-01-03T02:02:59.849Z,16.63
2019-01-03T02:03:40.697Z,16.56
2019-01-03T02:04:21.480Z,16.6
2019-01-03T02:05:02.366Z,16.64
2019-01-03T02:05:43.170Z,16.56
2019-01-03T02:06:23.975Z,16.5
2019-01-03T02:07:04.783Z,16.63
2019-01-03T02:07:45.502Z,16.57
2019-01-03T02:08:26.218Z,16.49
2019-01-03T02:09:06.985Z,16.53
2019-01-03T02:09:47.712Z,16.64
2019-01-03T02:10:28.616Z,16.58
2019-01-03T02:11:09.609Z,16.58
2019-01-03T02:11:50.512Z,16.57
2019-01-03T02:12:31.297Z,16.64
2019-01-03T02:13:12.170Z,16.52
2019-01-03T02:13:52.949Z,16.6
2019-01-03T02:14:33.797Z,16.52
2019-01-03T02:15:14.665Z,16.56
2019-01-03T02:15:55.426Z,16.58
2019-01-03T02:16:36.170Z,16.58
2019-01-03T02:17:16.878Z,16.58
2019-01-03T02:17:57.664Z,16.53
2019-01-03T02:18:38.449Z,16.58
2019-01-03T02:19:19.147Z,16.48
2019-01-03T02:19:59.891Z,16.49
2019-01-03T02:20:40.788Z,16.52
2019-01-03T02:21:21.581Z,16.6
2019-01-03T02:22:02.524Z,16.49
2019-01-03T02:22:43.203Z,16.61
2019-01-03T02:23:23.959Z,16.57
2019-01-03T02:24:04.916Z,16.5
2019-01-03T02:24:45.802Z,16.61
2019-01-03T02:25:26.665Z,16.53
2019-01-03T02:26:07.454Z,16.52
2019-01-03T02:26:48.237Z,16.46
2019-01-03T02:27:29.118Z,16.57
2019-01-03T02:28:09.857Z,16.46
2019-01-03T02:28:50.608Z,16.45
2019-01-03T02:29:31.499Z,16.5
2019-01-03T02:30:12.360Z,16.53
2019-01-03T02:30:53.079Z,16.49
2019-01-03T02:31:33.840Z,16.53
2019-01-03T02:32:14.519Z,16.52
2019-01-03T02:32:55.267Z,16.48
2019-01-03T02:33:36.119Z,16.53
2019-01-03T02:34:16.956Z,16.48
2019-01-03T02:34:57.944Z,16.5
2019-01-03T02:35:38.768Z,16.49
2019-01-03T02:36:19.554Z,16.5
2019-01-03T02:37:00.352Z,16.46
2019-01-03T02:37:41.138Z,16.5
2019-01-03T02:38:21.876Z,16.57
2019-01-03T02:39:02.703Z,16.49
2019-01-03T02:39:43.581Z,16.53
2019-01-03T02:40:24.418Z,16.53
2019-01-03T02:41:05.249Z,16.58
2019-01-03T02:41:46.043Z,16.46
2019-01-03T02:42:26.872Z,16.49
2019-01-03T02:43:07.607Z,16.46
2019-01-03T02:43:48.340Z,16.56
2019-01-03T02:44:29.212Z,16.57
2019-01-03T02:45:10.097Z,16.49
2019-01-03T02:45:50.838Z,16.53
2019-01-03T02:46:31.638Z,16.52
2019-01-03T02:47:12.409Z,16.49
2019-01-03T02:47:53.239Z,16.52
2019-01-03T02:48:33.968Z,16.43
2019-01-03T02:49:14.788Z,16.49
2019-01-03T02:49:55.633Z,16.5
2019-01-03T02:50:36.417Z,16.53
2019-01-03T02:51:17.143Z,16.48
2019-01-03T02:51:57.976Z,16.45
2019-01-03T02:52:38.732Z,16.46
2019-01-03T02:53:19.491Z,16.45
2019-01-03T02:54:00.322Z,16.5
2019-01-03T02:54:41.073Z,16.46
2019-01-03T02:55:21.766Z,16.46
2019-01-03T02:56:02.517Z,16.43
2019-01-03T02:56:43.543Z,16.48
2019-01-03T02:57:24.237Z,16.48
2019-01-03T02:58:05.003Z,16.45
2019-01-03T02:58:45.746Z,16.45
2019-01-03T02:59:26.540Z,16.5
2019-01-03T03:00:07.300Z,16.5
2019-01-03T03:00:48.194Z,16.5
2019-01-03T03:01:28.921Z,16.52
2019-01-03T03:02:09.630Z,16.48
2019-01-03T03:02:50.465Z,16.48
2019-01-03T03:03:31.237Z,16.45
2019-01-03T03:04:11.937Z,16.49
2019-01-03T03:04:52.666Z,16.45
2019-01-03T03:05:33.390Z,16.48
2019-01-03T03:06:14.194Z,16.46
2019-01-03T03:06:55.016Z,16.45
2019-01-03T03:07:35.846Z,16.48
2019-01-03T03:08:16.582Z,16.43
2019-01-03T03:08:57.307Z,16.39
2019-01-03T03:09:38.049Z,16.48
2019-01-03T03:10:18.893Z,16.46
2019-01-03T03:10:59.637Z,16.46
2019-01-03T03:11:40.415Z,16.48
2019-01-03T03:12:21.152Z,16.46
2019-01-03T03:13:01.932Z,16.33
2019-01-03T03:13:42.753Z,16.38
2019-01-03T03:14:23.535Z,16.38
2019-01-03T03:15:04.209Z,16.48
2019-01-03T03:15:44.954Z,16.43
2019-01-03T03:16:25.723Z,16.34
2019-01-03T03:17:06.552Z,16.49
2019-01-03T03:17:47.335Z,16.34
2019-01-03T03:18:28.111Z,16.35
2019-01-03T03:19:08.864Z,16.43
2019-01-03T03:19:49.601Z,16.33
2019-01-03T03:20:30.393Z,16.39
2019-01-03T03:21:11.105Z,16.41
2019-01-03T03:21:51.844Z,16.41
2019-01-03T03:22:32.578Z,16.48
2019-01-03T03:23:13.399Z,16.39
2019-01-03T03:23:54.198Z,16.38
2019-01-03T03:24:35.007Z,16.34
2019-01-03T03:25:15.702Z,16.39
2019-01-03T03:25:56.430Z,16.34
2019-01-03T03:26:37.113Z,16.39
2019-01-03T03:27:17.854Z,16.35
2019-01-03T03:27:58.695Z,16.39
2019-01-03T03:28:39.420Z,16.39
2019-01-03T03:29:21.510Z,16.34
2019-01-03T03:30:00.967Z,16.38
2019-01-03T03:30:41.773Z,16.39
2019-01-03T03:31:22.586Z,16.35
2019-01-03T03:32:03.304Z,16.39
2019-01-03T03:32:44.058Z,16.33
2019-01-03T03:33:24.912Z,16.42
2019-01-03T03:34:05.610Z,16.33
2019-01-03T03:34:46.319Z,16.43
2019-01-03T03:35:27.027Z,16.28
2019-01-03T03:36:07.776Z,16.34
2019-01-03T03:36:48.592Z,16.43
2019-01-03T03:37:29.284Z,16.43
2019-01-03T03:38:09.989Z,16.38
2019-01-03T03:38:50.793Z,16.35
2019-01-03T03:39:31.583Z,16.3
2019-01-03T03:40:12.350Z,16.34
2019-01-03T03:40:53.079Z,16.41
2019-01-03T03:41:33.811Z,16.39
2019-01-03T03:42:14.506Z,16.34
2019-01-03T03:42:55.285Z,16.35
2019-01-03T03:43:36.047Z,16.3
2019-01-03T03:44:16.825Z,16.3
2019-01-03T03:44:57.554Z,16.38
2019-01-03T03:45:38.232Z,16.34
2019-01-03T03:46:19.000Z,16.34
2019-01-03T03:46:59.752Z,16.34
2019-01-03T03:47:40.493Z,16.33
2019-01-03T03:48:21.206Z,16.38
2019-01-03T03:49:01.978Z,16.33
2019-01-03T03:49:42.748Z,16.42
2019-01-03T03:50:23.488Z,16.3
2019-01-03T03:51:04.181Z,16.33
2019-01-03T03:51:44.958Z,16.35
2019-01-03T03:52:25.751Z,16.33
2019-01-03T03:53:06.520Z,16.42
2019-01-03T03:53:47.234Z,16.33
2019-01-03T03:54:27.983Z,16.41
2019-01-03T03:55:08.773Z,16.33
2019-01-03T03:55:49.513Z,16.33
2019-01-03T03:56:30.270Z,16.33
2019-01-03T03:57:10.958Z,16.41
2019-01-03T03:57:51.748Z,16.33
2019-01-03T03:58:32.470Z,16.33
2019-01-03T03:59:13.268Z,16.42
2019-01-03T03:59:54.046Z,16.38
2019-01-03T04:00:34.755Z,16.25
2019-01-03T04:01:15.429Z,16.31
2019-01-03T04:01:56.162Z,16.31
2019-01-03T04:02:37.077Z,16.33
2019-01-03T04:03:17.848Z,16.27
2019-01-03T04:03:58.546Z,16.39
2019-01-03T04:04:39.318Z,16.33
2019-01-03T04:05:20.095Z,16.28
2019-01-03T04:06:00.906Z,16.38
2019-01-03T04:06:41.644Z,16.34
2019-01-03T04:07:22.348Z,16.41
2019-01-03T04:08:03.149Z,16.27
2019-01-03T04:08:43.870Z,16.35
2019-01-03T04:09:24.584Z,16.38
2019-01-03T04:10:05.269Z,16.28
2019-01-03T04:10:46.042Z,16.24
2019-01-03T04:11:26.848Z,16.28
2019-01-03T04:12:07.562Z,16.31
2019-01-03T04:12:48.253Z,16.24
2019-01-03T04:13:29.076Z,16.31
2019-01-03T04:14:09.900Z,16.24
2019-01-03T04:14:50.691Z,16.35
2019-01-03T04:15:31.377Z,16.31
2019-01-03T04:16:12.064Z,16.27
2019-01-03T04:16:52.803Z,16.25
2019-01-03T04:17:33.561Z,16.35
2019-01-03T04:18:14.310Z,16.27
2019-01-03T04:18:55.122Z,16.27
2019-01-03T04:19:35.886Z,16.24
2019-01-03T04:20:16.629Z,16.28
2019-01-03T04:20:57.398Z,16.33
2019-01-03T04:21:38.142Z,16.24
2019-01-03T04:22:18.863Z,16.24
2019-01-03T04:22:59.591Z,16.3
2019-01-03T04:23:40.309Z,16.28
2019-01-03T04:24:21.134Z,16.33
2019-01-03T04:25:01.954Z,16.3
2019-01-03T04:25:42.693Z,16.27
2019-01-03T04:26:23.403Z,16.31
2019-01-03T04:27:04.101Z,16.3
2019-01-03T04:27:44.788Z,16.31
2019-01-03T04:28:25.590Z,16.25
2019-01-03T04:29:06.353Z,16.28
2019-01-03T04:29:47.070Z,16.28
2019-01-03T04:30:27.856Z,16.27
2019-01-03T04:31:08.609Z,16.3
2019-01-03T04:31:49.426Z,16.27
2019-01-03T04:32:30.171Z,16.41
2019-01-03T04:33:10.905Z,16.27
2019-01-03T04:33:51.607Z,16.28
2019-01-03T04:34:32.312Z,16.31
2019-01-03T04:35:13.123Z,16.31
2019-01-03T04:35:53.907Z,16.39
2019-01-03T04:36:34.686Z,16.31
2019-01-03T04:37:15.409Z,16.25
2019-01-03T04:37:56.162Z,16.3
2019-01-03T04:38:36.915Z,16.2
2019-01-03T04:39:17.663Z,16.31
2019-01-03T04:39:58.394Z,16.23
2019-01-03T04:40:39.127Z,16.34
2019-01-03T04:41:19.887Z,16.28
2019-01-03T04:42:00.708Z,16.31
2019-01-03T04:42:41.431Z,16.2
2019-01-03T04:43:22.224Z,16.3
2019-01-03T04:44:02.986Z,16.24
2019-01-03T04:44:43.808Z,16.34
2019-01-03T04:45:24.555Z,16.28
2019-01-03T04:46:05.312Z,16.24
2019-01-03T04:46:46.183Z,16.31
2019-01-03T04:47:26.938Z,16.25
2019-01-03T04:48:07.668Z,16.31
2019-01-03T04:48:48.398Z,16.25
2019-01-03T04:49:29.128Z,16.31
2019-01-03T04:50:09.880Z,16.24
2019-01-03T04:50:50.719Z,16.25
2019-01-03T04:51:31.522Z,16.25
2019-01-03T04:52:12.235Z,16.28
2019-01-03T04:52:52.926Z,16.2
2019-01-03T04:53:33.643Z,16.31
2019-01-03T04:54:14.368Z,16.24
2019-01-03T04:54:55.136Z,16.24
2019-01-03T04:55:35.874Z,16.24
2019-01-03T04:56:16.604Z,16.2
2019-01-03T04:56:57.460Z,16.27
2019-01-03T04:57:38.282Z,16.25
2019-01-03T04:58:19.009Z,16.23
2019-01-03T04:58:59.740Z,16.23
2019-01-03T04:59:40.470Z,16.31
2019-01-03T05:00:21.222Z,16.17
2019-01-03T05:01:01.964Z,16.31
2019-01-03T05:01:42.816Z,16.25
2019-01-03T05:02:23.613Z,16.21
2019-01-03T05:03:04.363Z,16.28
2019-01-03T05:03:45.085Z,16.24
2019-01-03T05:04:25.890Z,16.27
2019-01-03T05:05:06.755Z,16.23
2019-01-03T05:05:47.467Z,16.25
2019-01-03T05:06:28.171Z,16.33
2019-01-03T05:07:08.867Z,16.33
2019-01-03T05:07:49.674Z,16.34
2019-01-03T05:08:30.468Z,16.25
2019-01-03T05:09:11.260Z,16.21
2019-01-03T05:09:51.952Z,16.33
2019-01-03T05:10:32.711Z,16.23
2019-01-03T05:11:13.457Z,16.27
2019-01-03T05:11:54.209Z,16.31
2019-01-03T05:12:35.022Z,16.31
2019-01-03T05:13:15.736Z,16.27
2019-01-03T05:13:56.464Z,16.28
2019-01-03T05:14:37.270Z,16.27
2019-01-03T05:15:18.075Z,16.24
2019-01-03T05:15:58.882Z,16.24
2019-01-03T05:16:39.592Z,16.3
2019-01-03T05:17:20.353Z,16.27
2019-01-03T05:18:01.123Z,16.23
2019-01-03T05:18:41.797Z,16.27
2019-01-03T05:19:22.514Z,16.3
2019-01-03T05:20:03.218Z,16.21
2019-01-03T05:20:43.966Z,16.27
2019-01-03T05:21:24.768Z,16.23
2019-01-03T05:22:05.513Z,16.24
2019-01-03T05:22:46.335Z,16.3
2019-01-03T05:23:27.184Z,16.21
2019-01-03T05:24:07.989Z,16.15
2019-01-03T05:24:48.732Z,16.31
2019-01-03T05:25:29.434Z,16.27
2019-01-03T05:26:10.171Z,16.17
2019-01-03T05:26:50.884Z,16.25
2019-01-03T05:27:31.746Z,16.28
2019-01-03T05:28:12.528Z,16.15
2019-01-03T05:28:53.314Z,16.24
2019-01-03T05:29:34.025Z,16.2
2019-01-03T05:30:18.168Z,16.28
2019-01-03T05:30:55.637Z,16.15
2019-01-03T05:31:36.352Z,16.15
2019-01-03T05:32:17.050Z,16.15
2019-01-03T05:32:57.780Z,16.2
2019-01-03T05:33:38.535Z,16.23
2019-01-03T05:34:19.340Z,16.23
2019-01-03T05:35:00.219Z,16.24
2019-01-03T05:35:40.836Z,16.27
2019-01-03T05:36:21.560Z,16.21
2019-01-03T05:37:02.269Z,16.17
2019-01-03T05:37:42.985Z,16.24
2019-01-03T05:38:23.774Z,16.15
2019-01-03T05:39:04.480Z,16.2
2019-01-03T05:39:45.236Z,16.2
2019-01-03T05:40:26.052Z,16.15
2019-01-03T05:41:06.891Z,16.27
2019-01-03T05:41:47.740Z,16.2
2019-01-03T05:42:28.482Z,16.17
2019-01-03T05:43:09.224Z,16.21
2019-01-03T05:43:49.922Z,16.17
2019-01-03T05:44:30.668Z,16.14
2019-01-03T05:45:11.475Z,16.17
2019-01-03T05:45:52.267Z,16.14
2019-01-03T05:46:33.027Z,16.12
2019-01-03T05:47:13.773Z,16.17
2019-01-03T05:47:54.539Z,16.24
2019-01-03T05:48:35.349Z,16.15
2019-01-03T05:49:16.067Z,16.14
2019-01-03T05:49:56.823Z,16.15
2019-01-03T05:50:37.526Z,16.28
2019-01-03T05:51:18.344Z,16.14
2019-01-03T05:51:59.097Z,16.17
2019-01-03T05:52:39.836Z,16.14
2019-01-03T05:53:21.909Z,16.25
2019-01-03T05:54:01.375Z,16.21
2019-01-03T05:54:42.231Z,16.3
2019-01-03T05:55:22.956Z,16.14
2019-01-03T05:56:03.693Z,16.17
2019-01-03T05:56:44.471Z,16.17
2019-01-03T05:57:25.196Z,16.15
2019-01-03T05:58:05.906Z,16.15
2019-01-03T05:58:46.690Z,16.17
2019-01-03T05:59:27.393Z,16.11
2019-01-03T06:00:08.198Z,16.12
2019-01-03T06:00:48.977Z,16.25
2019-01-03T06:01:29.757Z,16.11
2019-01-03T06:02:10.437Z,16.14
2019-01-03T06:02:51.238Z,16.21
2019-01-03T06:03:31.939Z,16.28
2019-01-03T06:04:12.711Z,16.15
2019-01-03T06:04:53.477Z,16.11
2019-01-03T06:05:34.197Z,16.15
2019-01-03T06:06:14.932Z,16.12
2019-01-03T06:06:55.748Z,16.15
2019-01-03T06:07:36.514Z,16.21
2019-01-03T06:08:17.299Z,16.15
2019-01-03T06:08:58.007Z,16.21
2019-01-03T06:09:38.788Z,16.15
2019-01-03T06:10:19.555Z,16.14
2019-01-03T06:11:00.262Z,16.27
2019-01-03T06:11:40.979Z,16.23
2019-01-03T06:12:21.696Z,16.17
2019-01-03T06:13:02.471Z,16.15
2019-01-03T06:13:43.256Z,16.21
2019-01-03T06:14:23.969Z,16.21
2019-01-03T06:15:04.718Z,16.2
2019-01-03T06:15:45.511Z,16.15
2019-01-03T06:16:26.256Z,16.14
2019-01-03T06:17:07.083Z,16.17
2019-01-03T06:17:47.816Z,16.24
2019-01-03T06:18:28.521Z,16.14
2019-01-03T06:19:09.257Z,16.24
2019-01-03T06:19:50.018Z,16.14
2019-01-03T06:20:30.825Z,16.15
2019-01-03T06:21:11.581Z,16.15
2019-01-03T06:21:52.323Z,16.12
2019-01-03T06:22:33.077Z,16.21
2019-01-03T06:23:13.888Z,16.14
2019-01-03T06:23:54.638Z,16.14
2019-01-03T06:24:35.368Z,16.2
2019-01-03T06:25:16.126Z,16.17
2019-01-03T06:25:56.918Z,16.12
2019-01-03T06:26:37.707Z,16.21
2019-01-03T06:27:18.433Z,16.15
2019-01-03T06:27:59.182Z,16.2
2019-01-03T06:28:40.042Z,16.14
2019-01-03T06:29:20.789Z,16.21
2019-01-03T06:30:01.592Z,16.14
2019-01-03T06:30:42.304Z,16.17
2019-01-03T06:31:23.083Z,16.17
2019-01-03T06:32:03.865Z,16.14
2019-01-03T06:32:44.538Z,16.21
2019-01-03T06:33:25.234Z,16.11
2019-01-03T06:34:05.955Z,16.2
2019-01-03T06:34:46.748Z,16.2
2019-01-03T06:35:27.565Z,16.15
2019-01-03T06:36:08.431Z,16.15
2019-01-03T06:36:49.118Z,16.14
2019-01-03T06:37:29.781Z,16.15
2019-01-03T06:38:10.480Z,16.14
2019-01-03T06:38:51.223Z,16.2
2019-01-03T06:39:32.001Z,16.21
2019-01-03T06:40:12.691Z,16.15
2019-01-03T06:40:53.430Z,16.2
2019-01-03T06:41:34.252Z,16.15
2019-01-03T06:42:15.023Z,16.08
2019-01-03T06:42:55.870Z,16.12
2019-01-03T06:43:36.581Z,16.17
2019-01-03T06:44:17.302Z,16.15
2019-01-03T06:44:58.008Z,16.11
2019-01-03T06:45:38.757Z,16.14
2019-01-03T06:46:19.555Z,16.15
2019-01-03T06:47:00.332Z,16.17
2019-01-03T06:47:41.047Z,16.17
2019-01-03T06:48:21.751Z,16.08
2019-01-03T06:49:02.539Z,16.08
2019-01-03T06:49:43.326Z,16.12
2019-01-03T06:50:24.038Z,16.11
2019-01-03T06:51:04.728Z,16.17
2019-01-03T06:51:45.469Z,16.09
2019-01-03T06:52:26.222Z,16.17
2019-01-03T06:53:06.983Z,16.11
2019-01-03T06:53:47.752Z,16.09
2019-01-03T06:54:28.499Z,16.09
2019-01-03T06:55:09.190Z,16.21
2019-01-03T06:55:49.883Z,16.11
2019-01-03T06:56:30.639Z,16.15
2019-01-03T06:57:11.418Z,16.17
2019-01-03T06:57:52.159Z,16.17
2019-01-03T06:58:32.956Z,16.08
2019-01-03T06:59:13.735Z,16.12
2019-01-03T06:59:54.501Z,16.11
2019-01-03T07:00:35.284Z,16.11
2019-01-03T07:01:15.969Z,16.14
2019-01-03T07:01:56.729Z,16.15
2019-01-03T07:02:37.559Z,16.08
2019-01-03T07:03:18.276Z,16.05
2019-01-03T07:03:58.978Z,16.08
2019-01-03T07:04:39.687Z,16.11
2019-01-03T07:05:20.455Z,16.08
2019-01-03T07:06:01.225Z,16.08
2019-01-03T07:06:41.914Z,16.15
2019-01-03T07:07:22.692Z,16.11
2019-01-03T07:08:03.487Z,16.11
2019-01-03T07:08:44.295Z,16.17
2019-01-03T07:09:25.045Z,16.14
2019-01-03T07:10:05.733Z,16.11
2019-01-03T07:10:46.466Z,16.12
2019-01-03T07:11:27.161Z,16.12
2019-01-03T07:12:07.994Z,16.15
2019-01-03T07:12:48.832Z,16.11
2019-01-03T07:13:29.648Z,16.08
2019-01-03T07:14:10.370Z,16.14
2019-01-03T07:14:51.199Z,16.15
2019-01-03T07:15:31.978Z,16.11
2019-01-03T07:16:12.700Z,16.15
2019-01-03T07:16:53.387Z,16.11
2019-01-03T07:17:34.109Z,16.09
2019-01-03T07:18:14.914Z,16.09
2019-01-03T07:18:55.785Z,16.15
2019-01-03T07:19:36.560Z,16.11
2019-01-03T07:20:17.265Z,16.11
2019-01-03T07:20:57.960Z,16.14
2019-01-03T07:21:38.830Z,16.05
2019-01-03T07:22:19.512Z,16.09
2019-01-03T07:23:00.294Z,16.07
2019-01-03T07:23:41.036Z,16.05
2019-01-03T07:24:21.829Z,16.11
2019-01-03T07:25:02.603Z,16.05
2019-01-03T07:25:43.529Z,16.08
2019-01-03T07:26:24.307Z,16.11
2019-01-03T07:27:05.035Z,16.11
2019-01-03T07:27:45.745Z,16.09
2019-01-03T07:28:26.465Z,16.14
2019-01-03T07:29:07.319Z,16.07
2019-01-03T07:29:48.123Z,16.09
2019-01-03T07:30:28.860Z,16.14
2019-01-03T07:31:09.599Z,16.11
2019-01-03T07:31:50.368Z,16.08
2019-01-03T07:32:31.122Z,16.11
2019-01-03T07:33:11.859Z,16.05
2019-01-03T07:33:52.584Z,16.07
2019-01-03T07:34:33.295Z,16.11
2019-01-03T07:35:14.094Z,16.11
2019-01-03T07:35:54.840Z,16.09
2019-01-03T07:36:35.598Z,16.05
2019-01-03T07:37:16.351Z,16.12
2019-01-03T07:37:57.143Z,16.15
2019-01-03T07:38:37.947Z,16.08
2019-01-03T07:39:18.750Z,16.14
2019-01-03T07:39:59.470Z,16.12
2019-01-03T07:40:40.274Z,16.08
2019-01-03T07:42:55.878Z,16.11
2019-01-03T07:43:36.579Z,16.15
2019-01-03T07:44:17.283Z,16.14
2019-01-03T07:44:57.991Z,16.15
2019-01-03T07:45:38.724Z,16.14
2019-01-03T07:46:19.542Z,16.21
2019-01-03T07:47:00.295Z,16.15
2019-01-03T07:47:41.010Z,16.2
2019-01-03T07:48:21.825Z,16.15
2019-01-03T07:49:02.611Z,16.11
2019-01-03T07:49:43.357Z,16.23
2019-01-03T07:50:24.077Z,16.15
2019-01-03T07:51:04.800Z,16.2
2019-01-03T07:51:45.545Z,16.14
2019-01-03T07:52:26.335Z,16.2
2019-01-03T07:53:07.125Z,16.2
2019-01-03T07:53:47.957Z,16.14
2019-01-03T07:54:28.700Z,16.17
2019-01-03T07:55:09.420Z,16.23
2019-01-03T07:55:50.193Z,16.15
2019-01-03T07:56:30.911Z,16.17
2019-01-03T07:57:11.674Z,16.2
2019-01-03T07:57:52.419Z,16.14
2019-01-03T07:58:33.116Z,16.17
2019-01-03T07:59:13.932Z,16.2
2019-01-03T07:59:54.728Z,16.17
2019-01-03T08:00:35.552Z,16.12
2019-01-03T08:01:16.236Z,16.15
2019-01-03T08:01:56.956Z,16.23
2019-01-03T08:02:37.669Z,16.28
2019-01-03T08:03:18.505Z,16.2
2019-01-03T08:03:59.266Z,16.21
2019-01-03T08:04:39.973Z,16.14
2019-01-03T08:05:20.729Z,16.23
2019-01-03T08:06:01.508Z,16.21
2019-01-03T08:06:42.312Z,16.17
2019-01-03T08:07:23.042Z,16.15
2019-01-03T08:08:03.745Z,16.15
2019-01-03T08:08:44.512Z,16.17
2019-01-03T08:09:25.283Z,16.11
2019-01-03T08:10:06.135Z,16.15
2019-01-03T08:10:46.930Z,16.2
2019-01-03T08:11:27.719Z,16.12
2019-01-03T08:12:08.453Z,16.17
2019-01-03T08:12:49.197Z,16.23
2019-01-03T08:13:30.008Z,16.21
2019-01-03T08:14:10.715Z,16.08
2019-01-03T08:14:51.438Z,16.23
2019-01-03T08:15:32.144Z,16.24
2019-01-03T08:16:12.940Z,16.2
2019-01-03T08:16:53.769Z,16.15
2019-01-03T08:17:34.527Z,16.21
2019-01-03T08:18:15.262Z,16.25
2019-01-03T08:18:56.109Z,16.21
2019-01-03T08:19:36.911Z,16.15
2019-01-03T08:20:17.627Z,16.14
2019-01-03T08:20:58.354Z,16.21
2019-01-03T08:21:39.147Z,16.15
2019-01-03T08:22:19.978Z,16.17
2019-01-03T08:23:00.656Z,16.25
2019-01-03T08:23:41.377Z,16.21
2019-01-03T08:24:22.105Z,16.21
2019-01-03T08:25:02.946Z,16.17
2019-01-03T08:25:43.666Z,16.14
2019-01-03T08:26:24.451Z,16.21
2019-01-03T08:27:05.190Z,16.17
2019-01-03T08:27:45.889Z,16.21
2019-01-03T08:28:26.581Z,16.11
2019-01-03T08:29:07.367Z,16.21
2019-01-03T08:29:48.201Z,16.24
2019-01-03T08:30:28.961Z,16.2
2019-01-03T08:31:09.662Z,16.2
2019-01-03T08:31:50.449Z,16.17
2019-01-03T08:32:31.244Z,16.11
2019-01-03T08:33:12.012Z,16.15
2019-01-03T08:33:52.759Z,16.23
2019-01-03T08:34:33.496Z,16.2
2019-01-03T08:35:14.194Z,16.2
2019-01-03T08:35:54.972Z,16.15
2019-01-03T08:36:35.748Z,16.15
2019-01-03T08:37:16.512Z,16.24
2019-01-03T08:37:57.266Z,16.17
2019-01-03T08:38:37.977Z,16.28
2019-01-03T08:39:18.814Z,16.23
2019-01-03T08:39:59.539Z,16.15
2019-01-03T08:40:40.256Z,16.14
2019-01-03T08:41:20.952Z,16.15
2019-01-03T08:42:08.416Z,16.15
2019-01-03T08:42:49.213Z,16.2
2019-01-03T08:43:30.022Z,16.27
2019-01-03T08:44:10.840Z,16.28
2019-01-03T08:44:51.553Z,16.15
2019-01-03T08:45:32.275Z,16.25
2019-01-03T08:46:13.022Z,16.2
2019-01-03T08:46:53.800Z,16.2
2019-01-03T08:47:34.570Z,16.2
2019-01-03T08:48:15.398Z,16.23
2019-01-03T08:49:00.447Z,16.2
2019-01-03T08:49:36.972Z,16.23
2019-01-03T08:50:17.793Z,16.25
2019-01-03T08:50:58.533Z,16.2
2019-01-03T08:51:39.277Z,16.2